Picton, Canada
Current Conditions -  °F | °C
As of 11:00 PM on Friday 24 Oct 2014 (Local Time) from CYTR Reporting Station
Few Clouds Few Clouds  
Wind Chill: 45°   Ceiling: Unl
Heat Index: 48°   Visibility: 15mi
Dew Point: 36°   Wind: 7mph
Humidity: 62%   Direction: 270°W
Pressure: 29.89"   Gusts: NA
Location:  44.01°N, 77.14°W
Report Text: CYTR 250300Z 27006KT 15SM FEW090 09/02 A2989 RMK AC1 SLP123
Loading
Personal Weather Stations






























Interactive Weather Map
Tropical Storm Tracking
New forecast layout! Learn more

10-Day Weather Forecast

Advertisements
Track Severe Weather on mobile